createdAt,value
2022-11-29T00:01:40.625Z,59.06
2022-11-29T00:04:09.100Z,58.73
2022-11-29T00:06:37.360Z,59.08
2022-11-29T00:09:12.416Z,58.88
2022-11-29T00:12:00.574Z,58.90
2022-11-29T00:14:28.999Z,59.51
2022-11-29T00:17:02.620Z,59.07
2022-11-29T00:19:33.213Z,58.74
2022-11-29T00:22:02.031Z,58.79
2022-11-29T00:24:32.403Z,59.09
2022-11-29T00:27:00.968Z,58.93
2022-11-29T00:29:30.050Z,59.46
2022-11-29T00:31:57.932Z,59.11
2022-11-29T00:34:25.790Z,59.40
2022-11-29T00:36:53.592Z,59.46
2022-11-29T00:39:21.441Z,59.13
2022-11-29T00:41:49.203Z,59.57
2022-11-29T00:44:20.405Z,59.17
2022-11-29T00:46:49.018Z,59.11
2022-11-29T00:49:17.410Z,59.51
2022-11-29T00:51:46.094Z,59.09
2022-11-29T00:54:13.961Z,59.02
2022-11-29T00:56:41.856Z,59.23
2022-11-29T00:59:09.740Z,59.32
2022-11-29T01:01:37.664Z,59.24
2022-11-29T01:04:05.455Z,59.41
2022-11-29T01:06:33.294Z,59.58
2022-11-29T01:09:01.084Z,59.19
2022-11-29T01:11:29.151Z,59.78
2022-11-29T01:14:01.854Z,59.42
2022-11-29T01:16:30.983Z,59.61
2022-11-29T01:18:58.939Z,59.94
2022-11-29T01:21:26.768Z,60.00
2022-11-29T01:23:55.362Z,59.88
2022-11-29T01:26:26.702Z,59.89
2022-11-29T01:28:56.921Z,61.48
2022-11-29T01:31:32.706Z,61.73
2022-11-29T01:34:03.072Z,61.01
2022-11-29T01:36:31.788Z,61.45
2022-11-29T01:39:01.871Z,62.71
2022-11-29T01:41:32.947Z,62.45
2022-11-29T01:44:14.227Z,62.68
2022-11-29T01:46:45.245Z,62.44
2022-11-29T01:49:29.424Z,62.12
2022-11-29T01:52:06.594Z,62.81
2022-11-29T01:54:40.976Z,62.02
2022-11-29T01:57:10.198Z,62.11
2022-11-29T01:59:44.166Z,62.08
2022-11-29T02:02:27.198Z,62.20
2022-11-29T02:05:00.348Z,61.86
2022-11-29T02:07:28.198Z,62.63
2022-11-29T02:09:56.139Z,62.35
2022-11-29T02:12:40.816Z,62.39
2022-11-29T02:15:40.173Z,62.16
2022-11-29T02:18:25.565Z,62.66
2022-11-29T02:21:33.195Z,62.89
2022-11-29T02:24:43.873Z,62.90
2022-11-29T02:27:52.243Z,63.25
2022-11-29T02:30:41.906Z,62.66
2022-11-29T02:33:50.498Z,62.97
2022-11-29T02:37:07.260Z,63.43
2022-11-29T02:39:59.344Z,62.96
2022-11-29T02:42:56.991Z,62.75
2022-11-29T02:46:05.212Z,62.87
2022-11-29T02:48:47.698Z,62.89
2022-11-29T02:51:27.571Z,63.46
2022-11-29T02:54:26.233Z,63.36
2022-11-29T02:57:01.248Z,63.36
2022-11-29T03:00:04.061Z,63.13
2022-11-29T03:03:11.378Z,63.04
2022-11-29T03:05:53.803Z,62.73
2022-11-29T03:09:07.928Z,63.41
2022-11-29T03:12:02.311Z,63.50
2022-11-29T03:15:00.068Z,63.11
2022-11-29T03:18:13.572Z,62.72
2022-11-29T03:21:18.126Z,62.97
2022-11-29T03:23:56.933Z,62.85
2022-11-29T03:26:35.977Z,62.60
2022-11-29T03:29:20.218Z,62.59
2022-11-29T03:32:44.154Z,62.90
2022-11-29T03:35:27.617Z,62.88
2022-11-29T03:38:07.829Z,63.05
2022-11-29T03:40:52.726Z,62.91
2022-11-29T03:44:24.255Z,63.07
2022-11-29T03:47:07.842Z,62.86
2022-11-29T03:49:45.758Z,63.09
2022-11-29T03:52:24.391Z,62.83
2022-11-29T03:55:10.564Z,62.56
2022-11-29T03:57:40.880Z,62.51
2022-11-29T04:00:13.048Z,62.69
2022-11-29T04:03:25.067Z,63.03
2022-11-29T04:06:17.074Z,63.03
2022-11-29T04:09:31.364Z,63.34
2022-11-29T04:12:23.787Z,62.63
2022-11-29T04:15:40.974Z,63.45
2022-11-29T04:18:27.481Z,62.97
2022-11-29T04:21:24.470Z,63.20
2022-11-29T04:24:44.842Z,63.11
2022-11-29T04:27:52.888Z,63.27
2022-11-29T04:30:23.307Z,63.29
2022-11-29T04:32:51.014Z,64.32
2022-11-29T04:36:27.071Z,63.48
2022-11-29T04:39:13.770Z,63.59
2022-11-29T04:41:51.492Z,64.04
2022-11-29T04:44:36.951Z,63.18
2022-11-29T04:47:10.438Z,63.53
2022-11-29T04:50:37.738Z,63.34
2022-11-29T04:53:44.719Z,63.21
2022-11-29T04:56:45.497Z,62.61
2022-11-29T04:59:25.089Z,63.27
2022-11-29T05:02:30.319Z,63.30
2022-11-29T05:05:29.376Z,63.42
2022-11-29T05:08:35.080Z,63.25
2022-11-29T05:11:20.805Z,63.15
2022-11-29T05:13:59.044Z,62.84
2022-11-29T05:17:09.576Z,62.88
2022-11-29T05:20:08.126Z,63.11
2022-11-29T05:23:13.014Z,63.35
2022-11-29T05:26:14.970Z,64.13
2022-11-29T05:28:45.610Z,63.48
2022-11-29T05:31:48.812Z,63.76
2022-11-29T05:34:45.517Z,63.66
2022-11-29T05:37:37.743Z,63.93
2022-11-29T05:40:20.763Z,63.73
2022-11-29T05:43:21.273Z,63.76
2022-11-29T05:46:29.325Z,63.85
2022-11-29T05:49:18.908Z,64.42
2022-11-29T05:52:11.639Z,64.88
2022-11-29T05:55:16.600Z,63.85
2022-11-29T05:58:30.113Z,63.64
2022-11-29T06:01:22.060Z,63.86
2022-11-29T06:04:14.992Z,64.37
2022-11-29T06:07:14.230Z,63.47
2022-11-29T06:10:00.537Z,63.61
2022-11-29T06:12:35.819Z,63.44
2022-11-29T06:15:24.625Z,63.13
2022-11-29T06:18:03.372Z,63.38
2022-11-29T06:21:00.703Z,63.64
2022-11-29T06:23:35.153Z,62.93
2022-11-29T06:26:29.251Z,63.28
2022-11-29T06:29:33.949Z,64.53
2022-11-29T06:32:10.390Z,63.42
2022-11-29T06:34:59.281Z,63.23
2022-11-29T06:37:45.059Z,63.66
2022-11-29T06:40:16.039Z,63.60
2022-11-29T06:42:44.207Z,63.23
2022-11-29T06:45:14.895Z,63.74
2022-11-29T06:47:44.198Z,63.62
2022-11-29T06:50:53.165Z,64.26
2022-11-29T06:53:23.858Z,63.65
2022-11-29T06:56:21.412Z,63.33
2022-11-29T06:59:29.128Z,63.17
2022-11-29T07:02:35.329Z,63.64
2022-11-29T07:05:36.456Z,63.65
2022-11-29T07:08:24.191Z,63.57
2022-11-29T07:10:55.644Z,63.34
2022-11-29T07:13:23.926Z,63.05
2022-11-29T07:16:25.061Z,63.30
2022-11-29T07:19:44.044Z,63.46
2022-11-29T07:22:37.797Z,63.48
2022-11-29T07:25:20.949Z,63.29
2022-11-29T07:28:38.265Z,63.42
2022-11-29T07:31:19.775Z,63.88
2022-11-29T07:34:19.915Z,63.64
2022-11-29T07:37:32.221Z,63.49
2022-11-29T07:40:19.621Z,63.59
2022-11-29T07:43:14.350Z,64.28
2022-11-29T07:45:42.287Z,63.85
2022-11-29T07:48:15.358Z,63.55
2022-11-29T07:50:44.181Z,63.47
2022-11-29T07:53:19.218Z,63.25
2022-11-29T07:55:49.230Z,63.19
2022-11-29T07:58:18.705Z,63.02
2022-11-29T08:00:46.622Z,63.21
2022-11-29T08:03:16.759Z,62.73
2022-11-29T08:05:49.116Z,62.96
2022-11-29T08:08:17.195Z,63.48
2022-11-29T08:10:45.276Z,63.38
2022-11-29T08:13:13.646Z,63.43
2022-11-29T08:15:46.834Z,63.02
2022-11-29T08:18:15.940Z,63.25
2022-11-29T08:20:43.958Z,63.76
2022-11-29T08:23:13.318Z,63.29
2022-11-29T08:25:41.625Z,63.52
2022-11-29T08:28:09.992Z,63.45
2022-11-29T08:30:37.932Z,63.33
2022-11-29T08:33:06.042Z,63.77
2022-11-29T08:35:36.024Z,63.56
2022-11-29T08:38:05.100Z,63.60
2022-11-29T08:40:32.991Z,64.01
2022-11-29T08:43:00.763Z,63.55
2022-11-29T08:45:28.625Z,63.70
2022-11-29T08:47:56.399Z,63.08
2022-11-29T08:50:24.646Z,63.51
2022-11-29T08:53:11.335Z,63.27
2022-11-29T08:55:42.852Z,63.55
2022-11-29T08:58:14.491Z,63.87
2022-11-29T09:00:46.907Z,63.64
2022-11-29T09:03:33.783Z,63.43
2022-11-29T09:06:13.494Z,63.34
2022-11-29T09:08:45.563Z,63.97
2022-11-29T09:11:23.049Z,64.40
2022-11-29T09:13:54.686Z,63.94
2022-11-29T09:16:28.703Z,64.51
2022-11-29T09:18:57.429Z,64.77
2022-11-29T09:21:27.771Z,64.79
2022-11-29T09:23:59.472Z,64.40
2022-11-29T09:26:31.041Z,64.80
2022-11-29T09:29:01.479Z,65.08
2022-11-29T09:31:31.446Z,65.21
2022-11-29T09:33:59.520Z,65.70
2022-11-29T09:36:29.539Z,64.79
2022-11-29T09:38:59.106Z,64.76
2022-11-29T09:41:54.317Z,64.87
2022-11-29T09:44:59.399Z,65.23
2022-11-29T09:47:42.096Z,64.75
2022-11-29T09:50:35.406Z,64.82
2022-11-29T09:53:30.597Z,66.73
2022-11-29T09:56:16.485Z,65.87
2022-11-29T09:58:54.196Z,65.68
2022-11-29T10:01:40.275Z,66.78
2022-11-29T10:04:19.858Z,67.08
2022-11-29T10:07:14.590Z,66.79
2022-11-29T10:09:56.508Z,66.12
2022-11-29T10:12:46.316Z,65.89
2022-11-29T10:15:29.291Z,65.23
2022-11-29T10:18:32.352Z,65.29
2022-11-29T10:21:12.771Z,65.30
2022-11-29T10:23:53.517Z,64.91
2022-11-29T10:26:23.045Z,64.67
2022-11-29T10:28:51.527Z,65.67
2022-11-29T10:31:26.872Z,65.25
2022-11-29T10:33:59.416Z,64.77
2022-11-29T10:36:50.853Z,65.17
2022-11-29T10:39:37.180Z,64.75
2022-11-29T10:42:32.815Z,64.89
2022-11-29T10:45:01.239Z,64.88
2022-11-29T10:47:29.133Z,64.47
2022-11-29T10:49:58.575Z,64.51
2022-11-29T10:52:26.450Z,64.67
2022-11-29T10:55:00.104Z,64.12
2022-11-29T10:57:27.972Z,64.35
2022-11-29T11:00:06.937Z,64.41
2022-11-29T11:02:35.983Z,64.55
2022-11-29T11:05:13.045Z,64.25
2022-11-29T11:07:41.351Z,64.66
2022-11-29T11:10:41.452Z,64.35
2022-11-29T11:13:26.985Z,64.50
2022-11-29T11:16:08.060Z,64.25
2022-11-29T11:18:37.247Z,65.14
2022-11-29T11:21:13.981Z,64.75
2022-11-29T11:24:03.064Z,64.43
2022-11-29T11:26:44.467Z,64.39
2022-11-29T11:29:20.924Z,63.94
2022-11-29T11:31:58.892Z,64.01
2022-11-29T11:34:35.726Z,63.90
2022-11-29T11:37:29.139Z,63.61
2022-11-29T11:40:26.457Z,63.75
2022-11-29T11:42:56.986Z,63.73
2022-11-29T11:45:33.510Z,63.89
2022-11-29T11:48:17.719Z,63.66
2022-11-29T11:50:57.745Z,63.16
2022-11-29T11:53:33.930Z,62.84
2022-11-29T11:56:04.146Z,63.43
2022-11-29T11:58:37.794Z,63.08
2022-11-29T12:01:28.644Z,63.02
2022-11-29T12:04:04.829Z,62.94
2022-11-29T12:06:52.282Z,62.94
2022-11-29T12:09:45.963Z,62.81
2022-11-29T12:12:28.778Z,63.15
2022-11-29T12:15:04.726Z,62.73
2022-11-29T12:17:55.900Z,62.87
2022-11-29T12:20:32.640Z,62.79
2022-11-29T12:23:31.108Z,62.63
2022-11-29T12:26:56.043Z,62.60
2022-11-29T12:29:18.771Z,62.29
2022-11-29T12:32:37.871Z,62.65
2022-11-29T12:35:08.559Z,62.14
2022-11-29T12:38:00.687Z,62.50
2022-11-29T12:40:52.959Z,61.81
2022-11-29T12:44:03.699Z,62.23
2022-11-29T12:46:33.098Z,62.21
2022-11-29T12:49:15.022Z,62.21
2022-11-29T12:52:00.587Z,61.76
2022-11-29T12:54:51.408Z,61.73
2022-11-29T12:57:40.124Z,61.66
2022-11-29T13:00:19.089Z,62.28
2022-11-29T13:03:26.231Z,62.21
2022-11-29T13:06:42.099Z,61.95
2022-11-29T13:09:36.880Z,62.24
2022-11-29T13:12:35.858Z,62.11
2022-11-29T13:15:44.367Z,62.16
2022-11-29T13:18:37.016Z,61.89
2022-11-29T13:21:37.335Z,62.30
2022-11-29T13:24:22.518Z,62.13
2022-11-29T13:26:51.723Z,62.07
2022-11-29T13:29:20.724Z,61.67
2022-11-29T13:31:49.947Z,61.80
2022-11-29T13:34:42.605Z,62.31
2022-11-29T13:37:16.488Z,62.13
2022-11-29T13:40:06.505Z,61.92
2022-11-29T13:43:23.343Z,61.88
2022-11-29T13:46:08.436Z,62.07
2022-11-29T13:48:48.750Z,62.10
2022-11-29T13:51:28.565Z,61.98
2022-11-29T13:54:00.837Z,61.89
2022-11-29T13:56:49.768Z,61.88
2022-11-29T13:59:45.800Z,61.81
2022-11-29T14:02:36.764Z,61.93
2022-11-29T14:05:07.969Z,61.74
2022-11-29T14:07:56.103Z,61.58
2022-11-29T14:10:29.053Z,61.67
2022-11-29T14:12:59.927Z,61.63
2022-11-29T14:15:33.917Z,61.65
2022-11-29T14:18:25.393Z,61.63
2022-11-29T14:20:58.243Z,61.55
2022-11-29T14:23:38.035Z,61.55
2022-11-29T14:26:05.815Z,61.65
2022-11-29T14:28:34.565Z,61.31
2022-11-29T14:31:04.549Z,61.65
2022-11-29T14:33:47.490Z,61.47
2022-11-29T14:36:15.148Z,61.69
2022-11-29T14:39:29.148Z,61.35
2022-11-29T14:42:19.403Z,61.36
2022-11-29T14:45:01.873Z,61.32
2022-11-29T14:47:47.452Z,61.47
2022-11-29T14:50:35.781Z,61.52
2022-11-29T14:53:07.477Z,61.56
2022-11-29T14:55:38.250Z,61.83
2022-11-29T14:58:18.207Z,61.54
2022-11-29T15:00:48.798Z,61.36
2022-11-29T15:03:16.464Z,61.01
2022-11-29T15:05:51.231Z,61.26
2022-11-29T15:09:12.972Z,61.29
2022-11-29T15:12:08.177Z,60.97
2022-11-29T15:15:09.285Z,60.84
2022-11-29T15:18:03.521Z,61.55
2022-11-29T15:21:18.175Z,61.36
2022-11-29T15:23:46.176Z,61.25
2022-11-29T15:26:20.870Z,61.19
2022-11-29T15:28:48.643Z,61.33
2022-11-29T15:31:20.851Z,61.37
2022-11-29T15:33:50.581Z,61.24
2022-11-29T15:36:24.252Z,61.27
2022-11-29T15:38:55.129Z,61.33
2022-11-29T15:41:35.601Z,61.32
2022-11-29T15:44:22.415Z,61.45
2022-11-29T15:46:50.267Z,61.53
2022-11-29T15:49:28.207Z,61.26
2022-11-29T15:52:07.731Z,61.53
2022-11-29T15:54:49.958Z,61.19
2022-11-29T15:57:30.650Z,61.16
2022-11-29T16:00:16.294Z,61.31
2022-11-29T16:03:04.257Z,61.21
2022-11-29T16:05:36.441Z,61.50
2022-11-29T16:08:14.866Z,61.50
2022-11-29T16:10:49.371Z,61.71
2022-11-29T16:13:37.068Z,61.64
2022-11-29T16:16:11.191Z,61.21
2022-11-29T16:18:41.977Z,61.18
2022-11-29T16:21:30.689Z,61.14
2022-11-29T16:24:10.273Z,61.30
2022-11-29T16:26:44.007Z,61.06
2022-11-29T16:29:41.590Z,60.81
2022-11-29T16:32:31.285Z,61.03
2022-11-29T16:35:21.439Z,61.28
2022-11-29T16:37:49.745Z,61.21
2022-11-29T16:40:30.209Z,60.98
2022-11-29T16:43:03.671Z,61.28
2022-11-29T16:45:41.685Z,61.04
2022-11-29T16:48:27.054Z,60.84
2022-11-29T16:51:10.197Z,61.07
2022-11-29T16:53:47.687Z,60.81
2022-11-29T16:56:28.134Z,60.80
2022-11-29T16:59:25.906Z,60.91
2022-11-29T17:01:49.485Z,60.62
2022-11-29T17:04:23.375Z,60.85
2022-11-29T17:06:56.473Z,60.45
2022-11-29T17:09:28.286Z,60.72
2022-11-29T17:11:59.899Z,60.58
2022-11-29T17:14:52.811Z,60.87
2022-11-29T17:17:20.684Z,60.81
2022-11-29T17:19:48.473Z,60.61
2022-11-29T17:22:16.346Z,60.78
2022-11-29T17:24:48.282Z,60.81
2022-11-29T17:27:16.746Z,60.87
2022-11-29T17:29:44.474Z,60.80
2022-11-29T17:32:12.275Z,60.38
2022-11-29T17:34:40.076Z,60.56
2022-11-29T17:37:07.938Z,60.52
2022-11-29T17:39:35.705Z,60.37
2022-11-29T17:42:03.719Z,60.61
2022-11-29T17:44:33.941Z,60.82
2022-11-29T17:47:01.731Z,60.77
2022-11-29T17:49:29.527Z,60.71
2022-11-29T17:51:57.273Z,60.19
2022-11-29T17:54:25.145Z,60.69
2022-11-29T17:56:52.897Z,60.58
2022-11-29T17:59:21.003Z,60.23
2022-11-29T18:01:49.583Z,60.54
2022-11-29T18:04:19.047Z,60.49
2022-11-29T18:06:50.179Z,60.34
2022-11-29T18:09:19.965Z,60.79
2022-11-29T18:11:50.314Z,60.78
2022-11-29T18:14:28.254Z,60.27
2022-11-29T18:16:56.481Z,60.51
2022-11-29T18:19:25.317Z,60.17
2022-11-29T18:21:53.218Z,60.50
2022-11-29T18:24:21.838Z,60.80
2022-11-29T18:26:49.807Z,60.54
2022-11-29T18:29:17.750Z,60.65
2022-11-29T18:31:46.396Z,60.35
2022-11-29T18:34:15.466Z,60.05
2022-11-29T18:36:48.730Z,60.03
2022-11-29T18:39:19.467Z,60.18
2022-11-29T18:41:49.984Z,60.25
2022-11-29T18:44:21.551Z,60.42
2022-11-29T18:46:49.469Z,60.18
2022-11-29T18:49:18.603Z,60.54
2022-11-29T18:51:47.677Z,60.69
2022-11-29T18:54:18.273Z,60.28
2022-11-29T18:56:46.771Z,60.26
2022-11-29T18:59:17.524Z,59.88
2022-11-29T19:01:48.184Z,59.80
2022-11-29T19:04:20.530Z,59.95
2022-11-29T19:06:49.339Z,60.02
2022-11-29T19:09:22.436Z,60.43
2022-11-29T19:11:50.980Z,60.13
2022-11-29T19:14:19.828Z,60.01
2022-11-29T19:16:49.662Z,59.89
2022-11-29T19:19:18.981Z,59.89
2022-11-29T19:21:47.704Z,59.63
2022-11-29T19:24:18.034Z,59.62
2022-11-29T19:26:48.174Z,59.88
2022-11-29T19:29:17.387Z,59.81
2022-11-29T19:31:45.461Z,60.14
2022-11-29T19:34:13.828Z,59.99
2022-11-29T19:36:43.715Z,59.96
2022-11-29T19:39:15.678Z,59.92
2022-11-29T19:41:47.035Z,60.05
2022-11-29T19:44:15.238Z,59.64
2022-11-29T19:46:47.078Z,59.66
2022-11-29T19:49:14.987Z,59.37
2022-11-29T19:51:43.070Z,59.10
2022-11-29T19:54:11.900Z,59.34
2022-11-29T19:56:40.230Z,59.48
2022-11-29T19:59:08.810Z,59.00
2022-11-29T20:01:42.042Z,59.55
2022-11-29T20:04:13.446Z,59.61
2022-11-29T20:06:43.082Z,59.42
2022-11-29T20:09:13.554Z,59.43
2022-11-29T20:11:41.312Z,59.71
2022-11-29T20:14:11.772Z,59.57
2022-11-29T20:16:39.585Z,59.50
2022-11-29T20:19:14.132Z,59.45
2022-11-29T20:21:48.765Z,59.50
2022-11-29T20:24:19.364Z,59.72
2022-11-29T20:26:49.428Z,59.48
2022-11-29T20:29:18.875Z,59.67
2022-11-29T20:31:50.811Z,59.76
2022-11-29T20:34:19.872Z,59.38
2022-11-29T20:37:30.428Z,59.53
2022-11-29T20:40:28.157Z,59.35
2022-11-29T20:43:22.225Z,59.17
2022-11-29T20:45:50.471Z,59.20
2022-11-29T20:48:23.425Z,59.29
2022-11-29T20:51:00.889Z,59.42
2022-11-29T20:53:43.652Z,58.90
2022-11-29T20:56:12.303Z,58.90
2022-11-29T20:58:40.394Z,59.23
2022-11-29T21:01:08.365Z,58.80
2022-11-29T21:03:36.394Z,58.83
2022-11-29T21:06:05.914Z,59.14
2022-11-29T21:08:34.315Z,59.49
2022-11-29T21:11:08.960Z,59.81
2022-11-29T21:13:37.612Z,59.35
2022-11-29T21:16:06.152Z,59.38
2022-11-29T21:18:34.563Z,59.54
2022-11-29T21:21:40.720Z,59.92
2022-11-29T21:24:28.367Z,59.96
2022-11-29T21:26:56.389Z,59.71
2022-11-29T21:29:24.666Z,59.53
2022-11-29T21:31:54.370Z,59.62
2022-11-29T21:34:22.525Z,59.50
2022-11-29T21:36:56.919Z,60.07
2022-11-29T21:39:32.544Z,59.88
2022-11-29T21:42:00.504Z,60.03
2022-11-29T21:44:28.287Z,59.86
2022-11-29T21:46:56.088Z,60.26
2022-11-29T21:49:23.867Z,60.03
2022-11-29T21:51:51.666Z,60.31
2022-11-29T21:54:19.402Z,59.93
2022-11-29T21:56:47.180Z,59.98
2022-11-29T21:59:14.973Z,59.63
2022-11-29T22:01:42.907Z,60.24
2022-11-29T22:04:10.862Z,60.02
2022-11-29T22:06:39.237Z,60.06
2022-11-29T22:09:07.765Z,60.07
2022-11-29T22:11:35.930Z,60.38
2022-11-29T22:14:16.189Z,59.83
2022-11-29T22:16:58.411Z,60.04
2022-11-29T22:19:36.192Z,60.50
2022-11-29T22:22:09.127Z,60.23
2022-11-29T22:24:38.063Z,60.43
2022-11-29T22:27:05.889Z,60.77
2022-11-29T22:29:33.630Z,60.02
2022-11-29T22:32:02.323Z,60.09
2022-11-29T22:34:30.110Z,59.88
2022-11-29T22:36:57.937Z,59.92
2022-11-29T22:39:25.735Z,59.74
2022-11-29T22:41:55.019Z,60.19
2022-11-29T22:44:26.252Z,59.60
2022-11-29T22:46:54.183Z,60.05
2022-11-29T22:49:22.810Z,60.16
2022-11-29T22:51:50.605Z,59.92
2022-11-29T22:54:18.354Z,60.15
2022-11-29T22:56:46.705Z,59.92
2022-11-29T22:59:14.560Z,60.03
2022-11-29T23:01:42.873Z,60.34
2022-11-29T23:04:12.258Z,60.23
2022-11-29T23:06:43.889Z,60.24
2022-11-29T23:09:22.310Z,60.11
2022-11-29T23:11:55.929Z,59.87
2022-11-29T23:14:24.604Z,60.02
2022-11-29T23:16:52.962Z,60.32
2022-11-29T23:19:21.216Z,60.12
2022-11-29T23:21:49.164Z,60.30
2022-11-29T23:24:17.152Z,59.93
2022-11-29T23:26:46.906Z,59.90
2022-11-29T23:29:19.810Z,59.97
2022-11-29T23:31:50.159Z,60.25
2022-11-29T23:34:17.972Z,60.04
2022-11-29T23:36:51.130Z,60.31
2022-11-29T23:39:20.930Z,60.26
2022-11-29T23:41:48.691Z,60.50
2022-11-29T23:44:16.440Z,60.44
2022-11-29T23:46:44.213Z,60.46
2022-11-29T23:49:12.221Z,60.10
2022-11-29T23:51:40.005Z,60.43
2022-11-29T23:54:07.913Z,60.16
2022-11-29T23:56:35.776Z,60.02
2022-11-29T23:59:03.608Z,60.24
